Time;durP1;ratioP1;P1;durP2;ratioP2;P2;SDS_P1;SDS_P2;PMS_P1;PMS_P2;Temp;Humidity;BMP_temperature;BMP_pressure;BME280_temperature;BME280_humidity;BME280_pressure;Samples;Min_cycle;Max_cycle;Signal;HPM_P1;HPM_P2
2021/06/05 00:00:43;;;;;;;10.18;6.28;;;461.00;1843.20;;;;;;5055580;28;20509;-77
2021/06/05 00:03:11;;;;;;;11.13;5.85;;;460.90;1843.20;;;;;;5055427;28;20029;-76
2021/06/05 00:05:40;;;;;;;9.25;6.78;;;460.90;1843.20;;;;;;5055338;28;20032;-78
2021/06/05 00:08:07;;;;;;;7.65;5.82;;;460.90;1843.20;;;;;;5054631;28;20031;-76
2021/06/05 00:10:37;;;;;;;6.75;5.60;;;460.80;1868.80;;;;;;5055313;28;20017;-77
2021/06/05 00:13:06;;;;;;;10.45;6.43;;;460.90;1868.80;;;;;;5054015;28;20078;-77
2021/06/05 00:15:38;;;;;;;11.27;6.22;;;460.80;1868.80;;;;;;5054997;28;20028;-77
2021/06/05 00:18:04;;;;;;;18.38;6.22;;;436.10;1843.20;;;;;;5055436;28;20090;-77
2021/06/05 00:20:30;;;;;;;10.30;6.15;;;436.10;1843.20;;;;;;5055234;28;20497;-78
2021/06/05 00:23:00;;;;;;;12.98;6.22;;;436.10;1843.20;;;;;;5055370;28;20376;-77
2021/06/05 00:25:28;;;;;;;11.38;7.45;;;436.10;1868.80;;;;;;5055164;28;20029;-78
2021/06/05 00:27:54;;;;;;;10.68;6.88;;;436.10;1868.80;;;;;;5053632;28;20622;-78
2021/06/05 00:30:21;;;;;;;11.32;6.90;;;436.10;1868.80;;;;;;5054981;28;20107;-78
2021/06/05 00:32:46;;;;;;;13.77;6.57;;;436.10;1868.80;;;;;;5054581;28;20045;-78
2021/06/05 00:35:12;;;;;;;14.30;6.93;;;436.10;1868.80;;;;;;5055067;28;20036;-78
2021/06/05 00:37:38;;;;;;;12.02;6.20;;;436.00;1868.80;;;;;;5053557;28;20021;-78
2021/06/05 00:40:07;;;;;;;7.75;5.78;;;436.00;1843.20;;;;;;5054803;28;20024;-78
2021/06/05 00:42:32;;;;;;;9.00;6.38;;;436.00;1868.80;;;;;;5054688;28;20025;-79
2021/06/05 00:45:12;;;;;;;9.10;6.53;;;436.00;1894.40;;;;;;5053475;28;20559;-78
2021/06/05 00:47:38;;;;;;;18.52;6.75;;;435.90;1868.80;;;;;;5053046;28;20029;-78
2021/06/05 00:50:07;;;;;;;9.60;6.20;;;435.90;1868.80;;;;;;5053785;28;20029;-77
2021/06/05 00:52:33;;;;;;;9.02;6.60;;;435.90;1894.40;;;;;;5053312;28;20036;-78
2021/06/05 00:55:00;;;;;;;9.10;6.68;;;435.90;1868.80;;;;;;5054448;28;20028;-77
2021/06/05 00:57:26;;;;;;;14.82;7.55;;;435.90;1868.80;;;;;;5054735;28;20051;-77
2021/06/05 00:59:52;;;;;;;18.00;9.50;;;436.00;1868.80;;;;;;5054701;28;20521;-77
2021/06/05 01:02:17;;;;;;;14.00;9.40;;;435.90;1868.80;;;;;;5054788;28;20100;-77
2021/06/05 01:04:43;;;;;;;25.42;10.48;;;435.90;1868.80;;;;;;5054348;28;20495;-77
2021/06/05 01:07:29;;;;;;;19.83;11.13;;;435.80;1868.80;;;;;;5054263;28;20477;-78
2021/06/05 01:10:00;;;;;;;20.40;10.63;;;435.80;1868.80;;;;;;5054231;28;20053;-77
2021/06/05 01:12:46;;;;;;;17.25;10.23;;;435.80;1868.80;;;;;;5054188;28;20032;-77
2021/06/05 01:15:15;;;;;;;17.83;9.93;;;435.80;1868.80;;;;;;5052845;28;20063;-77
2021/06/05 01:17:47;;;;;;;16.60;9.48;;;435.70;1868.80;;;;;;5051773;28;20029;-77
2021/06/05 01:20:35;;;;;;;15.20;9.52;;;435.80;1868.80;;;;;;5054284;28;20031;-77
2021/06/05 01:23:24;;;;;;;14.80;9.18;;;435.70;1868.80;;;;;;5054020;28;20025;-77
2021/06/05 01:25:50;;;;;;;20.05;9.80;;;435.70;1868.80;;;;;;5053954;28;20031;-77
2021/06/05 01:28:23;;;;;;;16.42;9.90;;;435.60;1868.80;;;;;;5053872;28;20111;-77
2021/06/05 01:30:53;;;;;;;21.17;9.73;;;435.60;1868.80;;;;;;5051993;28;20029;-78
2021/06/05 01:33:24;;;;;;;16.58;9.93;;;435.60;1868.80;;;;;;5052176;28;20055;-77
2021/06/05 01:35:51;;;;;;;15.77;9.57;;;435.50;1868.80;;;;;;5053743;28;20021;-77
2021/06/05 01:38:18;;;;;;;20.73;9.45;;;435.50;1868.80;;;;;;5052552;28;20065;-77
2021/06/05 01:40:48;;;;;;;24.42;9.93;;;435.50;1868.80;;;;;;5052084;28;20064;-78
2021/06/05 01:43:18;;;;;;;12.50;8.40;;;435.60;1868.80;;;;;;5053647;28;20029;-78
2021/06/05 01:45:45;;;;;;;20.13;10.03;;;435.60;1868.80;;;;;;5052372;28;20033;-78
2021/06/05 01:48:12;;;;;;;24.05;9.73;;;435.50;1868.80;;;;;;5053719;28;20435;-78
2021/06/05 01:50:43;;;;;;;20.02;9.75;;;435.50;1868.80;;;;;;5053639;28;20083;-79
2021/06/05 01:53:19;;;;;;;21.33;11.80;;;435.40;1868.80;;;;;;5052366;28;20130;-78
2021/06/05 01:55:51;;;;;;;17.02;9.57;;;435.40;1894.40;;;;;;5053611;28;20025;-79
2021/06/05 01:58:19;;;;;;;19.08;10.32;;;435.30;1894.40;;;;;;5052423;28;20488;-76
2021/06/05 02:00:49;;;;;;;16.60;10.18;;;435.30;1894.40;;;;;;5053705;28;20412;-77
2021/06/05 02:03:16;;;;;;;15.93;10.40;;;435.30;1920.00;;;;;;5053808;28;20025;-77
2021/06/05 02:05:43;;;;;;;14.48;9.27;;;435.30;1920.00;;;;;;5052272;28;20067;-77
2021/06/05 02:08:12;;;;;;;21.52;10.25;;;435.30;1894.40;;;;;;5053502;28;20025;-79
2021/06/05 02:10:39;;;;;;;16.25;9.38;;;435.30;1894.40;;;;;;5053479;28;20028;-77
2021/06/05 02:13:10;;;;;;;19.50;9.90;;;435.30;1894.40;;;;;;5052870;28;20021;-77
2021/06/05 02:15:59;;;;;;;17.10;9.18;;;435.20;1894.40;;;;;;5053988;28;20086;-77
2021/06/05 02:18:28;;;;;;;15.07;9.75;;;435.20;1894.40;;;;;;5057609;28;20025;-77
2021/06/05 02:21:02;;;;;;;21.48;9.45;;;435.20;1894.40;;;;;;5057777;28;20072;-77
2021/06/05 02:23:41;;;;;;;30.50;10.00;;;435.20;1894.40;;;;;;5057583;28;20032;-77
2021/06/05 02:26:07;;;;;;;16.02;10.05;;;435.20;1894.40;;;;;;5056102;28;20072;-76
2021/06/05 02:28:36;;;;;;;18.40;9.45;;;410.50;1894.40;;;;;;5056142;28;20485;-77
2021/06/05 02:31:04;;;;;;;13.55;9.32;;;410.50;1894.40;;;;;;5057286;28;20404;-77
2021/06/05 02:33:32;;;;;;;14.40;8.73;;;410.50;1894.40;;;;;;5055599;28;20044;-77
2021/06/05 02:36:01;;;;;;;16.80;9.13;;;410.40;1894.40;;;;;;5057306;28;20472;-78
2021/06/05 02:38:26;;;;;;;13.25;8.85;;;410.50;1894.40;;;;;;5057328;28;20021;-77
2021/06/05 02:40:54;;;;;;;16.08;8.98;;;410.50;1894.40;;;;;;5057594;28;20063;-78
2021/06/05 02:43:24;;;;;;;15.48;8.60;;;410.40;1894.40;;;;;;5056186;28;20134;-77
2021/06/05 02:46:00;;;;;;;14.02;9.63;;;410.40;1894.40;;;;;;5056238;28;20033;-77
2021/06/05 02:48:40;;;;;;;14.90;9.23;;;410.40;1894.40;;;;;;5057500;28;20044;-77
2021/06/05 02:51:06;;;;;;;13.75;8.93;;;410.40;1920.00;;;;;;5055501;28;20037;-78
2021/06/05 02:53:32;;;;;;;16.20;8.85;;;410.40;1920.00;;;;;;5079352;28;20010;-78
2021/06/05 02:55:57;;;;;;;12.23;8.23;;;410.40;1920.00;;;;;;5077896;28;20071;-76
2021/06/05 02:58:23;;;;;;;16.33;9.15;;;410.30;1920.00;;;;;;5080966;28;20059;-77
2021/06/05 03:00:49;;;;;;;13.18;7.68;;;410.30;1920.00;;;;;;5069897;28;20033;-77
2021/06/05 03:03:17;;;;;;;11.75;8.23;;;410.40;1920.00;;;;;;5056941;28;20095;-77
2021/06/05 03:05:43;;;;;;;23.33;9.43;;;410.40;1920.00;;;;;;5057639;28;20032;-77
2021/06/05 03:08:12;;;;;;;11.32;8.15;;;410.40;1920.00;;;;;;5055977;28;20025;-78
2021/06/05 03:10:39;;;;;;;9.50;8.13;;;410.30;1920.00;;;;;;5056945;28;20025;-78
2021/06/05 03:13:07;;;;;;;11.63;8.15;;;410.40;1920.00;;;;;;5056420;28;20040;-78
2021/06/05 03:15:34;;;;;;;11.35;7.47;;;410.40;1920.00;;;;;;5056218;28;20075;-78
2021/06/05 03:18:00;;;;;;;18.27;7.88;;;410.40;1920.00;;;;;;5055111;28;20029;-78
2021/06/05 03:20:32;;;;;;;12.90;7.72;;;410.40;1945.60;;;;;;5055059;28;20354;-78
2021/06/05 03:22:58;;;;;;;19.75;8.80;;;410.40;1945.60;;;;;;5056297;28;20021;-78
2021/06/05 03:25:25;;;;;;;11.57;7.40;;;410.40;1945.60;;;;;;5054954;28;20032;-78
2021/06/05 03:27:51;;;;;;;11.88;6.88;;;410.40;1945.60;;;;;;5056097;28;20079;-78
2021/06/05 03:30:19;;;;;;;13.88;7.93;;;410.40;1945.60;;;;;;5056083;28;20025;-78
2021/06/05 03:32:45;;;;;;;9.93;7.32;;;410.40;1945.60;;;;;;5054757;28;20079;-78
2021/06/05 03:35:12;;;;;;;8.05;6.55;;;410.40;1971.20;;;;;;5055941;28;20036;-78
2021/06/05 03:37:38;;;;;;;12.80;7.55;;;410.40;1945.60;;;;;;5053954;28;20044;-76
2021/06/05 03:40:08;;;;;;;9.77;6.80;;;410.40;1945.60;;;;;;5055944;28;20408;-77
2021/06/05 03:42:33;;;;;;;10.47;6.87;;;410.50;1971.20;;;;;;5054736;28;20032;-78
2021/06/05 03:44:59;;;;;;;10.52;7.05;;;410.50;1971.20;;;;;;5054581;28;20025;-77
2021/06/05 03:47:25;;;;;;;12.55;7.90;;;435.20;1971.20;;;;;;5054652;28;20025;-77
2021/06/05 03:49:52;;;;;;;9.52;6.97;;;435.30;1971.20;;;;;;5054396;28;20029;-78
2021/06/05 03:52:22;;;;;;;11.02;7.10;;;435.30;1971.20;;;;;;5055619;28;20381;-77
2021/06/05 03:54:50;;;;;;;19.75;8.10;;;435.40;1971.20;;;;;;5055634;28;20021;-78
2021/06/05 03:57:16;;;;;;;16.67;7.10;;;435.50;1971.20;;;;;;5053908;28;20068;-77
2021/06/05 03:59:42;;;;;;;13.35;7.55;;;435.60;1971.20;;;;;;5054178;28;20033;-77
2021/06/05 04:02:08;;;;;;;16.13;7.82;;;435.70;1996.80;;;;;;5054186;28;20027;-78
2021/06/05 04:04:33;;;;;;;17.52;10.00;;;435.80;1996.80;;;;;;5053831;28;20041;-78
2021/06/05 04:06:59;;;;;;;14.05;9.05;;;435.90;1996.80;;;;;;5055603;28;20086;-78
2021/06/05 04:09:25;;;;;;;12.23;9.40;;;435.90;1996.80;;;;;;5054907;28;20523;-77
2021/06/05 04:11:51;;;;;;;16.00;10.90;;;436.00;1996.80;;;;;;5055596;28;20035;-77
2021/06/05 04:14:16;;;;;;;12.85;10.95;;;436.00;1996.80;;;;;;5055330;28;20029;-77
2021/06/05 04:16:42;;;;;;;14.60;11.48;;;436.10;1971.20;;;;;;5054047;28;20025;-77
2021/06/05 04:19:08;;;;;;;17.85;10.18;;;460.80;1996.80;;;;;;5054571;28;20025;-77
2021/06/05 04:21:34;;;;;;;14.15;11.18;;;461.00;1971.20;;;;;;5055064;28;20832;-78
2021/06/05 04:23:59;;;;;;;16.60;11.20;;;461.00;1996.80;;;;;;5054208;28;20079;-77
2021/06/05 04:26:25;;;;;;;13.57;10.38;;;461.00;1996.80;;;;;;5055113;28;20021;-77
2021/06/05 04:28:51;;;;;;;14.00;9.50;;;461.20;1971.20;;;;;;5053778;28;20431;-78
2021/06/05 04:31:17;;;;;;;13.82;9.35;;;461.30;1996.80;;;;;;5053613;28;20128;-78
2021/06/05 04:33:43;;;;;;;10.35;9.27;;;461.30;1996.80;;;;;;5053452;28;20084;-77
2021/06/05 04:36:13;;;;;;;17.05;9.13;;;461.40;1971.20;;;;;;5054885;28;20029;-77
2021/06/05 04:38:40;;;;;;;15.60;9.80;;;461.60;1920.00;;;;;;5052585;28;20025;-77
2021/06/05 04:41:07;;;;;;;12.63;8.13;;;461.60;1945.60;;;;;;5053449;28;20036;-78
2021/06/05 04:43:33;;;;;;;12.15;9.30;;;461.70;1920.00;;;;;;5054926;28;20024;-77
2021/06/05 04:45:59;;;;;;;13.35;9.68;;;486.40;1920.00;;;;;;5053199;28;20437;-78
2021/06/05 04:48:25;;;;;;;11.23;8.40;;;486.50;1894.40;;;;;;5055393;28;20053;-78
2021/06/05 04:50:52;;;;;;;13.27;8.05;;;486.50;1920.00;;;;;;5053296;28;20120;-78
2021/06/05 04:53:18;;;;;;;9.20;7.55;;;486.60;1894.40;;;;;;5054800;28;20049;-78
2021/06/05 04:55:45;;;;;;;9.27;7.40;;;486.70;1894.40;;;;;;5053951;28;20048;-78
2021/06/05 04:58:12;;;;;;;11.13;7.63;;;486.70;1843.20;;;;;;5054743;28;20025;-78
2021/06/05 05:00:44;;;;;;;8.00;6.95;;;486.90;1894.40;;;;;;5054121;28;20023;-76
2021/06/05 05:03:12;;;;;;;15.85;8.50;;;486.90;1868.80;;;;;;5056666;28;20028;-77
2021/06/05 05:05:38;;;;;;;19.00;8.30;;;487.00;1868.80;;;;;;5055127;28;20029;-77
2021/06/05 05:08:06;;;;;;;11.00;8.55;;;487.00;1868.80;;;;;;5039047;28;20120;-77
2021/06/05 05:10:36;;;;;;;17.70;9.30;;;487.20;1843.20;;;;;;5058798;28;20033;-80
2021/06/05 05:13:03;;;;;;;13.48;9.40;;;487.20;1817.60;;;;;;5039511;28;20686;-79
2021/06/05 05:15:29;;;;;;;19.27;8.77;;;487.20;1817.60;;;;;;5035727;28;20033;-84
2021/06/05 05:17:54;;;;;;;11.93;8.55;;;487.20;1817.60;;;;;;5036021;28;20818;-77
2021/06/05 05:20:30;;;;;;;13.27;8.48;;;487.30;1792.00;;;;;;5033710;28;20032;-81
2021/06/05 05:22:56;;;;;;;12.07;8.68;;;512.00;1792.00;;;;;;5033202;28;20048;-78
2021/06/05 05:25:22;;;;;;;12.32;5.78;;;512.10;1792.00;;;;;;5034676;28;20026;-83
2021/06/05 05:27:48;;;;;;;12.50;5.82;;;512.30;1766.40;;;;;;5032889;28;20043;-81
2021/06/05 05:30:22;;;;;;;9.68;6.78;;;512.60;1740.80;;;;;;5032818;28;20025;-81
2021/06/05 05:32:48;;;;;;;15.43;6.00;;;512.60;1715.20;;;;;;5035390;28;20045;-82
2021/06/05 05:35:15;;;;;;;11.45;5.22;;;512.80;1715.20;;;;;;5053097;28;20037;-79
2021/06/05 05:37:42;;;;;;;17.08;7.28;;;512.90;1587.20;;;;;;5053096;28;20028;-80
2021/06/05 05:40:09;;;;;;;11.25;5.65;;;512.90;1638.40;;;;;;5052494;28;20017;-80
2021/06/05 05:42:35;;;;;;;15.52;6.75;;;537.70;1664.00;;;;;;5051399;28;20072;-78
2021/06/05 05:45:01;;;;;;;13.02;4.97;;;537.70;1664.00;;;;;;5051794;28;20060;-80
2021/06/05 05:47:27;;;;;;;19.88;5.05;;;537.80;1638.40;;;;;;5052833;28;20364;-81
2021/06/05 05:49:52;;;;;;;9.05;4.15;;;537.90;1638.40;;;;;;5052852;28;20081;-82
2021/06/05 05:52:18;;;;;;;6.88;5.25;;;538.10;1612.80;;;;;;5052277;28;20120;-80
2021/06/05 05:54:44;;;;;;;14.07;5.25;;;538.10;1612.80;;;;;;5051911;28;20112;-79
2021/06/05 05:57:09;;;;;;;13.65;5.13;;;538.20;1587.20;;;;;;5051886;28;20036;-79
2021/06/05 05:59:35;;;;;;;10.60;5.45;;;538.20;1561.60;;;;;;5053626;28;20021;-80
2021/06/05 06:02:02;;;;;;;6.25;4.85;;;538.20;1561.60;;;;;;5051825;28;20862;-79
2021/06/05 06:04:28;;;;;;;16.80;8.02;;;538.30;1561.60;;;;;;5051086;28;20021;-80
2021/06/05 06:06:54;;;;;;;20.77;10.40;;;538.40;1510.40;;;;;;5053140;28;20123;-78
2021/06/05 06:09:20;;;;;;;74.47;26.00;;;538.50;1510.40;;;;;;5052350;28;20442;-78
2021/06/05 06:11:46;;;;;;;71.60;23.65;;;563.20;1587.20;;;;;;5052943;28;20021;-78
2021/06/05 06:14:15;;;;;;;30.35;10.50;;;563.30;1612.80;;;;;;5051363;28;20025;-78
2021/06/05 06:16:43;;;;;;;26.98;7.45;;;563.30;1536.00;;;;;;5052756;28;20029;-76
2021/06/05 06:19:12;;;;;;;23.25;8.95;;;563.40;1536.00;;;;;;5051525;28;20033;-78
2021/06/05 06:21:39;;;;;;;41.05;12.35;;;563.40;1561.60;;;;;;5051934;28;20373;-79
2021/06/05 06:24:05;;;;;;;17.95;5.78;;;563.50;1536.00;;;;;;5051421;28;20033;-82
2021/06/05 06:26:31;;;;;;;42.17;14.25;;;563.60;1510.40;;;;;;5052150;28;20033;-77
2021/06/05 06:29:08;;;;;;;28.25;10.25;;;563.70;1561.60;;;;;;5051924;28;20029;-77
2021/06/05 06:31:34;;;;;;;25.95;8.45;;;563.80;1536.00;;;;;;5051303;28;20025;-78
2021/06/05 06:34:00;;;;;;;19.92;6.65;;;563.80;1536.00;;;;;;5051800;28;20052;-77
2021/06/05 06:36:26;;;;;;;23.98;10.02;;;563.90;1510.40;;;;;;5053084;28;20033;-77
2021/06/05 06:38:52;;;;;;;10.70;5.93;;;563.90;1536.00;;;;;;5051825;28;20025;-77
2021/06/05 06:41:26;;;;;;;4.63;3.05;;;564.10;1459.20;;;;;;5053045;28;20018;-77
2021/06/05 06:43:52;;;;;;;8.52;4.50;;;564.10;1433.60;;;;;;5052462;28;20023;-77
2021/06/05 06:46:22;;;;;;;4.60;3.33;;;564.10;1459.20;;;;;;5052351;28;20100;-77
2021/06/05 06:48:50;;;;;;;6.18;2.50;;;588.80;1433.60;;;;;;5052890;28;20429;-77
2021/06/05 06:51:17;;;;;;;5.68;1.85;;;588.80;1408.00;;;;;;5053001;28;20021;-78
2021/06/05 06:53:44;;;;;;;2.90;2.28;;;588.90;1331.20;;;;;;5053246;28;20510;-77
2021/06/05 06:56:10;;;;;;;11.32;3.92;;;588.90;1356.80;;;;;;5050969;28;20432;-77
2021/06/05 06:58:36;;;;;;;5.78;2.65;;;589.00;1356.80;;;;;;5051259;28;20021;-77
2021/06/05 07:01:03;;;;;;;5.97;2.78;;;589.00;1459.20;;;;;;5050747;28;20025;-77
2021/06/05 07:03:30;;;;;;;3.97;3.10;;;589.10;1433.60;;;;;;5055018;28;20032;-77
2021/06/05 07:05:55;;;;;;;6.47;2.95;;;589.20;1433.60;;;;;;5054828;28;20488;-76
2021/06/05 07:08:31;;;;;;;6.88;2.88;;;589.20;1459.20;;;;;;5054800;28;20035;-77
2021/06/05 07:11:04;;;;;;;6.30;2.53;;;589.40;1433.60;;;;;;5053878;28;20447;-78
2021/06/05 07:13:30;;;;;;;6.28;2.67;;;589.40;1433.60;;;;;;5054753;28;20582;-78
2021/06/05 07:15:57;;;;;;;6.55;2.35;;;589.50;1408.00;;;;;;5054415;28;20029;-77
2021/06/05 07:18:26;;;;;;;4.80;3.20;;;589.50;1382.40;;;;;;5053348;28;20033;-77
2021/06/05 07:20:52;;;;;;;4.35;2.45;;;589.60;1408.00;;;;;;5054716;28;20025;-77
2021/06/05 07:23:19;;;;;;;4.68;2.35;;;589.70;1382.40;;;;;;5054540;28;20051;-78
2021/06/05 07:25:45;;;;;;;7.30;2.13;;;614.40;1356.80;;;;;;5054514;28;20496;-78
2021/06/05 07:28:17;;;;;;;4.93;2.15;;;614.40;1356.80;;;;;;5054615;28;20108;-78
2021/06/05 07:30:44;;;;;;;8.05;2.60;;;614.50;1331.20;;;;;;5053120;28;20485;-78
2021/06/05 07:33:10;;;;;;;6.13;3.20;;;614.50;1305.60;;;;;;5053211;28;20068;-78
2021/06/05 07:35:36;;;;;;;3.42;2.10;;;614.60;1305.60;;;;;;5054312;28;20036;-77
2021/06/05 07:38:02;;;;;;;4.90;2.15;;;614.70;1280.00;;;;;;5053035;28;20029;-77
2021/06/05 07:40:28;;;;;;;5.60;1.88;;;614.70;1254.40;;;;;;5053221;28;20052;-78
2021/06/05 07:42:54;;;;;;;6.70;2.20;;;614.70;1228.80;;;;;;5054616;28;20043;-78
2021/06/05 07:45:21;;;;;;;10.57;2.22;;;614.80;1228.80;;;;;;5054651;28;20481;-78
2021/06/05 07:47:46;;;;;;;5.88;1.67;;;614.90;1203.20;;;;;;5053016;28;20049;-78
2021/06/05 07:50:14;;;;;;;3.03;2.17;;;615.00;1203.20;;;;;;5054133;28;20052;-78
2021/06/05 07:52:40;;;;;;;9.32;2.45;;;615.00;1177.60;;;;;;5053990;28;20029;-77
2021/06/05 07:55:08;;;;;;;8.77;1.90;;;615.10;1152.00;;;;;;5052792;28;20429;-77
2021/06/05 07:57:33;;;;;;;2.22;1.70;;;615.10;1100.80;;;;;;5053989;28;20024;-77
2021/06/05 07:59:59;;;;;;;4.38;1.58;;;615.10;1100.80;;;;;;5054005;28;20025;-78
2021/06/05 08:02:25;;;;;;;8.00;1.67;;;615.10;1100.80;;;;;;5054006;28;20091;-76
2021/06/05 08:04:51;;;;;;;7.45;2.38;;;615.30;1152.00;;;;;;5052663;28;20036;-78
2021/06/05 08:07:18;;;;;;;5.97;2.25;;;640.00;1177.60;;;;;;5053596;28;20021;-77
2021/06/05 08:09:44;;;;;;;3.70;1.83;;;640.00;1177.60;;;;;;5052806;28;20032;-77
2021/06/05 08:12:10;;;;;;;2.42;1.83;;;640.00;1152.00;;;;;;5053358;28;20544;-77
2021/06/05 08:14:36;;;;;;;2.80;1.90;;;640.00;1152.00;;;;;;5053359;28;20032;-77
2021/06/05 08:17:03;;;;;;;3.38;1.85;;;640.10;1152.00;;;;;;5052335;28;20029;-77
2021/06/05 08:19:29;;;;;;;7.82;2.88;;;640.10;1152.00;;;;;;5052513;28;20497;-77
2021/06/05 08:21:54;;;;;;;6.88;2.33;;;640.20;1152.00;;;;;;5053720;28;20112;-77
2021/06/05 08:24:20;;;;;;;2.95;2.05;;;640.30;1177.60;;;;;;5053704;28;20052;-77
2021/06/05 08:26:47;;;;;;;5.47;1.88;;;640.40;1177.60;;;;;;5052389;28;20054;-77
2021/06/05 08:29:13;;;;;;;2.05;1.88;;;640.40;1152.00;;;;;;5052217;28;20036;-79
2021/06/05 08:31:39;;;;;;;2.05;1.90;;;640.50;1177.60;;;;;;5052322;28;20057;-76
2021/06/05 08:34:05;;;;;;;5.13;1.73;;;640.50;1152.00;;;;;;5053298;28;20128;-77
2021/06/05 08:36:32;;;;;;;5.07;1.90;;;640.60;1126.40;;;;;;5052516;28;20033;-77
2021/06/05 08:38:59;;;;;;;7.18;1.85;;;640.70;1126.40;;;;;;5052200;28;20389;-78
2021/06/05 08:41:32;;;;;;;1.65;1.55;;;640.80;1100.80;;;;;;5053340;28;20013;-77
2021/06/05 08:44:04;;;;;;;4.63;1.88;;;640.80;1075.20;;;;;;5052036;28;20481;-78
2021/06/05 08:46:40;;;;;;;3.30;1.58;;;640.90;1049.60;;;;;;5052508;28;20083;-78
2021/06/05 08:49:13;;;;;;;4.57;1.58;;;640.80;1024.00;;;;;;5051571;28;20028;-78
2021/06/05 08:51:56;;;;;;;2.67;1.60;;;640.80;1024.00;;;;;;5053356;28;20100;-77
2021/06/05 08:54:45;;;;;;;3.00;1.40;;;640.90;1024.00;;;;;;5053482;28;20096;-80
2021/06/05 08:57:17;;;;;;;3.72;1.95;;;640.90;998.40;;;;;;5051364;28;20079;-78
2021/06/05 08:59:45;;;;;;;3.35;1.42;;;640.90;1024.00;;;;;;5051839;28;20021;-78
2021/06/05 09:02:13;;;;;;;2.67;2.10;;;665.70;1049.60;;;;;;5053101;28;20100;-78
2021/06/05 09:04:40;;;;;;;2.00;1.40;;;665.70;1049.60;;;;;;5051187;28;20151;-78
2021/06/05 09:07:14;;;;;;;5.68;1.95;;;665.70;1075.20;;;;;;5051480;28;20037;-78
2021/06/05 09:09:45;;;;;;;3.30;1.98;;;665.70;1126.40;;;;;;5051626;28;20249;-78
2021/06/05 09:12:13;;;;;;;3.50;1.42;;;665.90;1126.40;;;;;;5051729;28;20032;-79
2021/06/05 09:14:39;;;;;;;2.10;1.67;;;665.90;1075.20;;;;;;5053097;28;20021;-78
2021/06/05 09:17:21;;;;;;;2.95;1.80;;;666.00;1049.60;;;;;;5051798;28;20082;-78
2021/06/05 09:20:13;;;;;;;4.15;1.90;;;666.10;1100.80;;;;;;5051726;28;20037;-79
2021/06/05 09:22:45;;;;;;;4.05;1.85;;;666.20;1075.20;;;;;;5053044;28;20491;-78
2021/06/05 09:25:20;;;;;;;3.50;1.85;;;666.20;1126.40;;;;;;5054109;28;20167;-78
2021/06/05 09:27:46;;;;;;;5.15;1.83;;;666.20;1049.60;;;;;;5065274;28;20511;-77
2021/06/05 09:30:36;;;;;;;3.90;1.60;;;666.20;1100.80;;;;;;5062473;28;20017;-77
2021/06/05 09:33:07;;;;;;;4.45;1.85;;;666.30;1100.80;;;;;;5056500;28;20136;-78
2021/06/05 09:35:39;;;;;;;1.60;1.50;;;666.40;1049.60;;;;;;5052983;28;20033;-77
2021/06/05 09:38:33;;;;;;;9.20;1.70;;;666.50;1049.60;;;;;;5054170;28;20036;-78
2021/06/05 09:41:02;;;;;;;5.85;2.20;;;666.40;1075.20;;;;;;5053809;28;20014;-77
2021/06/05 09:43:29;;;;;;;6.85;1.80;;;666.50;1075.20;;;;;;5051290;28;20043;-78
2021/06/05 09:46:07;;;;;;;10.52;1.90;;;666.50;1049.60;;;;;;5050923;28;20027;-78
2021/06/05 09:48:42;;;;;;;4.85;1.50;;;666.50;1024.00;;;;;;5052097;28;20016;-78
2021/06/05 09:51:42;;;;;;;2.03;1.80;;;666.50;1075.20;;;;;;5050470;28;20033;-78
2021/06/05 09:54:15;;;;;;;7.10;2.00;;;691.30;1100.80;;;;;;5029168;28;20033;-78
2021/06/05 09:56:48;;;;;;;1.92;1.65;;;691.30;1100.80;;;;;;5052324;28;20068;-77
2021/06/05 09:59:16;;;;;;;1.65;1.55;;;691.40;1075.20;;;;;;5052015;28;20025;-78
2021/06/05 10:02:02;;;;;;;2.47;1.73;;;691.50;1100.80;;;;;;5051183;28;20024;-76
2021/06/05 10:04:31;;;;;;;6.45;1.85;;;691.50;1049.60;;;;;;5050525;28;20036;-78
2021/06/05 10:06:59;;;;;;;1.63;1.45;;;691.50;1049.60;;;;;;5050849;28;20043;-78
2021/06/05 10:09:25;;;;;;;4.68;2.72;;;691.60;998.40;;;;;;5050649;28;20485;-77
2021/06/05 10:11:58;;;;;;;4.90;1.60;;;691.60;1024.00;;;;;;5051828;28;20040;-78
2021/06/05 10:14:48;;;;;;;2.22;1.52;;;691.60;1024.00;;;;;;5052082;28;20021;-77
2021/06/05 10:17:52;;;;;;;3.40;1.70;;;691.60;998.40;;;;;;5050465;28;20116;-78
2021/06/05 10:20:40;;;;;;;4.20;2.00;;;691.60;998.40;;;;;;5050892;28;20033;-78
2021/06/05 10:23:08;;;;;;;11.15;1.98;;;691.60;1049.60;;;;;;5052036;28;20810;-78
2021/06/05 10:25:40;;;;;;;1.98;1.88;;;691.60;1024.00;;;;;;5051855;28;20188;-78
2021/06/05 10:28:19;;;;;;;4.85;1.60;;;691.70;1049.60;;;;;;5051831;28;20025;-78
2021/06/05 10:31:09;;;;;;;6.65;1.75;;;691.90;1075.20;;;;;;5050379;28;20086;-78
2021/06/05 10:33:41;;;;;;;5.32;2.60;;;691.90;1049.60;;;;;;5050624;28;20045;-78
2021/06/05 10:36:18;;;;;;;3.00;1.73;;;691.90;998.40;;;;;;5052474;28;20043;-78
2021/06/05 10:38:47;;;;;;;9.27;3.35;;;691.90;1024.00;;;;;;5054520;28;20059;-77
2021/06/05 10:41:18;;;;;;;9.63;3.05;;;692.00;1049.60;;;;;;5055557;28;20018;-78
2021/06/05 10:43:45;;;;;;;14.50;3.97;;;692.00;1024.00;;;;;;5054602;28;20037;-77
2021/06/05 10:46:25;;;;;;;3.08;2.22;;;692.10;1024.00;;;;;;5040525;28;20053;-78
2021/06/05 10:48:51;;;;;;;3.15;2.22;;;716.90;1049.60;;;;;;5054073;28;20098;-77
2021/06/05 10:51:25;;;;;;;8.65;3.70;;;716.90;1049.60;;;;;;5054032;28;20040;-79
2021/06/05 10:53:57;;;;;;;9.20;3.35;;;716.90;998.40;;;;;;5053998;28;20400;-77
2021/06/05 10:56:42;;;;;;;3.83;1.90;;;716.80;1024.00;;;;;;5054970;28;20037;-78
2021/06/05 10:59:46;;;;;;;2.35;1.83;;;717.00;1075.20;;;;;;5055270;28;20049;-78
2021/06/05 11:02:45;;;;;;;4.60;1.60;;;717.00;972.80;;;;;;5053785;28;20048;-78
2021/06/05 11:05:24;;;;;;;2.88;1.48;;;717.00;998.40;;;;;;5053532;28;20037;-78
2021/06/05 11:08:15;;;;;;;9.30;2.17;;;717.10;1024.00;;;;;;5054108;28;20029;-78
2021/06/05 11:10:53;;;;;;;2.22;2.00;;;717.10;1049.60;;;;;;5053538;28;20114;-78
2021/06/05 11:13:37;;;;;;;3.20;1.50;;;717.10;998.40;;;;;;5053941;28;20090;-78
2021/06/05 11:16:06;;;;;;;2.28;1.73;;;717.10;972.80;;;;;;5053758;28;20055;-78
2021/06/05 11:18:37;;;;;;;5.22;1.60;;;717.10;972.80;;;;;;5053947;28;20036;-78
2021/06/05 11:21:22;;;;;;;3.80;1.55;;;717.20;1049.60;;;;;;5056413;28;20028;-77
2021/06/05 11:23:57;;;;;;;3.42;1.40;;;717.30;998.40;;;;;;5053502;28;20021;-77
2021/06/05 11:26:37;;;;;;;6.85;1.75;;;717.40;998.40;;;;;;5053673;28;20045;-77
2021/06/05 11:29:26;;;;;;;3.08;2.08;;;717.40;972.80;;;;;;5053145;28;20420;-78
2021/06/05 11:31:59;;;;;;;10.82;2.35;;;717.40;998.40;;;;;;5054099;28;20079;-78
2021/06/05 11:34:37;;;;;;;2.70;1.40;;;717.50;972.80;;;;;;5053140;28;20029;-78
2021/06/05 11:37:03;;;;;;;3.13;1.58;;;717.60;972.80;;;;;;5052542;28;20029;-77
2021/06/05 11:39:31;;;;;;;1.65;1.58;;;717.60;998.40;;;;;;5053061;28;20024;-78
2021/06/05 11:42:21;;;;;;;2.85;1.40;;;717.70;972.80;;;;;;5054118;28;20087;-78
2021/06/05 11:44:56;;;;;;;2.33;1.70;;;717.70;921.60;;;;;;5052792;28;20031;-77
2021/06/05 11:47:21;;;;;;;2.00;1.70;;;717.70;947.20;;;;;;5052864;28;20021;-78
2021/06/05 11:50:02;;;;;;;3.15;1.77;;;717.70;896.00;;;;;;5053779;28;20094;-77
2021/06/05 11:52:31;;;;;;;3.35;2.00;;;742.40;972.80;;;;;;5051459;28;20025;-78
2021/06/05 11:55:06;;;;;;;4.80;1.85;;;742.60;998.40;;;;;;5052541;28;20029;-77
2021/06/05 11:57:40;;;;;;;5.55;1.50;;;742.60;972.80;;;;;;5053853;28;20040;-78
2021/06/05 12:00:06;;;;;;;5.60;1.70;;;742.60;947.20;;;;;;5052402;28;20074;-77
2021/06/05 12:02:42;;;;;;;2.42;1.83;;;742.70;896.00;;;;;;5052922;28;20028;-78
2021/06/05 12:05:22;;;;;;;5.40;3.03;;;742.70;921.60;;;;;;5054476;28;20025;-77
2021/06/05 12:07:49;;;;;;;6.78;1.77;;;742.70;921.60;;;;;;5052828;28;20021;-79
2021/06/05 12:10:36;;;;;;;10.73;1.85;;;742.70;896.00;;;;;;5053939;28;20139;-78
2021/06/05 12:13:05;;;;;;;9.27;2.03;;;742.70;896.00;;;;;;5052637;28;20033;-77
2021/06/05 12:15:36;;;;;;;2.40;2.03;;;742.80;972.80;;;;;;5053907;28;20053;-77
2021/06/05 12:18:08;;;;;;;5.35;3.03;;;742.90;947.20;;;;;;5052765;28;20060;-77
2021/06/05 12:20:47;;;;;;;2.03;1.77;;;742.90;921.60;;;;;;5053685;28;20485;-78
2021/06/05 12:23:31;;;;;;;2.37;1.60;;;743.00;896.00;;;;;;5052688;28;20082;-77
2021/06/05 12:26:16;;;;;;;1.35;1.27;;;743.10;972.80;;;;;;5054134;28;20307;-77
2021/06/05 12:28:48;;;;;;;2.65;2.25;;;743.20;947.20;;;;;;5053281;28;20025;-77